sensor_id;sensor_type;location;lat;lon;timestamp;pressure;altitude;pressure_sealevel;temperature;humidity
31285;BME280;56605;51.516;6.742;2023-03-26T00:00:28;100562.91;;;6.89;100.00
31285;BME280;56605;51.516;6.742;2023-03-26T00:02:53;100562.63;;;6.92;100.00
31285;BME280;56605;51.516;6.742;2023-03-26T00:05:18;100569.63;;;6.93;100.00
31285;BME280;56605;51.516;6.742;2023-03-26T00:07:44;100557.03;;;6.95;100.00
31285;BME280;56605;51.516;6.742;2023-03-26T00:10:10;100568.84;;;7.01;100.00
31285;BME280;56605;51.516;6.742;2023-03-26T00:12:35;100567.75;;;7.03;100.00
31285;BME280;56605;51.516;6.742;2023-03-26T00:15:01;100562.25;;;7.05;100.00
31285;BME280;56605;51.516;6.742;2023-03-26T00:17:27;100561.81;;;7.09;100.00
31285;BME280;56605;51.516;6.742;2023-03-26T00:19:52;100563.50;;;7.10;100.00
31285;BME280;56605;51.516;6.742;2023-03-26T00:22:18;100552.91;;;7.10;100.00
31285;BME280;56605;51.516;6.742;2023-03-26T00:24:43;100559.00;;;7.11;100.00
31285;BME280;56605;51.516;6.742;2023-03-26T00:27:11;100553.41;;;7.14;100.00
31285;BME280;56605;51.516;6.742;2023-03-26T00:29:36;100553.41;;;7.14;100.00
31285;BME280;56605;51.516;6.742;2023-03-26T00:32:04;100549.94;;;7.14;100.00
31285;BME280;56605;51.516;6.742;2023-03-26T00:34:29;100555.06;;;7.15;100.00
31285;BME280;56605;51.516;6.742;2023-03-26T00:36:58;100551.47;;;7.16;100.00
31285;BME280;56605;51.516;6.742;2023-03-26T00:39:27;100541.13;;;7.13;100.00
31285;BME280;56605;51.516;6.742;2023-03-26T00:41:53;100540.44;;;7.11;100.00
31285;BME280;56605;51.516;6.742;2023-03-26T00:44:19;100539.06;;;7.07;100.00
31285;BME280;56605;51.516;6.742;2023-03-26T00:46:45;100545.38;;;7.06;100.00
31285;BME280;56605;51.516;6.742;2023-03-26T00:49:10;100541.72;;;7.07;100.00
31285;BME280;56605;51.516;6.742;2023-03-26T00:51:38;100540.72;;;7.08;100.00
31285;BME280;56605;51.516;6.742;2023-03-26T00:54:04;100550.38;;;7.09;100.00
31285;BME280;56605;51.516;6.742;2023-03-26T00:56:29;100538.91;;;7.08;100.00
31285;BME280;56605;51.516;6.742;2023-03-26T00:58:54;100540.59;;;7.09;100.00
31285;BME280;56605;51.516;6.742;2023-03-26T01:01:23;100539.63;;;7.10;100.00
31285;BME280;56605;51.516;6.742;2023-03-26T01:03:53;100543.63;;;7.15;100.00
31285;BME280;56605;51.516;6.742;2023-03-26T01:06:28;100539.69;;;7.19;100.00
31285;BME280;56605;51.516;6.742;2023-03-26T01:09:03;100542.06;;;7.22;100.00
31285;BME280;56605;51.516;6.742;2023-03-26T01:11:31;100529.78;;;7.21;100.00
31285;BME280;56605;51.516;6.742;2023-03-26T01:14:13;100521.66;;;7.22;100.00
31285;BME280;56605;51.516;6.742;2023-03-26T01:16:49;100521.47;;;7.24;100.00
31285;BME280;56605;51.516;6.742;2023-03-26T01:21:54;100518.22;;;7.30;100.00
31285;BME280;56605;51.516;6.742;2023-03-26T01:24:19;100513.22;;;7.27;100.00
31285;BME280;56605;51.516;6.742;2023-03-26T01:29:45;100513.50;;;7.24;100.00
31285;BME280;56605;51.516;6.742;2023-03-26T01:37:57;100501.91;;;7.25;100.00
31285;BME280;56605;51.516;6.742;2023-03-26T01:40:32;100501.22;;;7.23;100.00
31285;BME280;56605;51.516;6.742;2023-03-26T01:45:43;100496.22;;;7.20;100.00
31285;BME280;56605;51.516;6.742;2023-03-26T01:48:10;100494.00;;;7.15;100.00
31285;BME280;56605;51.516;6.742;2023-03-26T01:50:36;100483.38;;;7.15;100.00
31285;BME280;56605;51.516;6.742;2023-03-26T01:53:01;100476.56;;;7.13;100.00
31285;BME280;56605;51.516;6.742;2023-03-26T01:55:51;100475.06;;;7.10;100.00
31285;BME280;56605;51.516;6.742;2023-03-26T02:00:52;100462.94;;;7.07;100.00
31285;BME280;56605;51.516;6.742;2023-03-26T02:08:37;100455.66;;;6.91;100.00
31285;BME280;56605;51.516;6.742;2023-03-26T02:11:10;100450.63;;;6.88;100.00
31285;BME280;56605;51.516;6.742;2023-03-26T02:13:37;100440.78;;;6.80;100.00
31285;BME280;56605;51.516;6.742;2023-03-26T02:16:06;100446.06;;;6.80;100.00
31285;BME280;56605;51.516;6.742;2023-03-26T02:18:32;100445.63;;;6.85;100.00
31285;BME280;56605;51.516;6.742;2023-03-26T02:21:14;100445.56;;;6.95;100.00
31285;BME280;56605;51.516;6.742;2023-03-26T02:23:45;100440.50;;;7.02;100.00
31285;BME280;56605;51.516;6.742;2023-03-26T02:26:12;100437.19;;;7.08;100.00
31285;BME280;56605;51.516;6.742;2023-03-26T02:28:38;100441.09;;;7.14;100.00
31285;BME280;56605;51.516;6.742;2023-03-26T02:31:04;100429.63;;;7.13;100.00
31285;BME280;56605;51.516;6.742;2023-03-26T02:33:31;100432.78;;;7.17;100.00
31285;BME280;56605;51.516;6.742;2023-03-26T02:35:57;100428.03;;;7.20;100.00
31285;BME280;56605;51.516;6.742;2023-03-26T02:38:24;100427.88;;;7.22;100.00
31285;BME280;56605;51.516;6.742;2023-03-26T02:40:51;100419.38;;;7.18;100.00
31285;BME280;56605;51.516;6.742;2023-03-26T02:43:16;100417.72;;;7.17;100.00
31285;BME280;56605;51.516;6.742;2023-03-26T02:45:41;100408.25;;;7.15;100.00
31285;BME280;56605;51.516;6.742;2023-03-26T02:48:07;100404.59;;;7.16;100.00
31285;BME280;56605;51.516;6.742;2023-03-26T02:50:32;100414.38;;;7.15;100.00
31285;BME280;56605;51.516;6.742;2023-03-26T02:53:01;100404.91;;;7.13;100.00
31285;BME280;56605;51.516;6.742;2023-03-26T02:55:26;100394.06;;;7.06;100.00
31285;BME280;56605;51.516;6.742;2023-03-26T02:57:51;100389.50;;;6.98;100.00
31285;BME280;56605;51.516;6.742;2023-03-26T03:00:16;100393.31;;;6.95;100.00
31285;BME280;56605;51.516;6.742;2023-03-26T03:02:42;100381.34;;;6.91;100.00
31285;BME280;56605;51.516;6.742;2023-03-26T03:05:11;100378.13;;;6.88;100.00
31285;BME280;56605;51.516;6.742;2023-03-26T03:07:38;100376.47;;;6.87;100.00
31285;BME280;56605;51.516;6.742;2023-03-26T03:10:05;100368.88;;;6.92;100.00
31285;BME280;56605;51.516;6.742;2023-03-26T03:12:33;100364.56;;;6.91;100.00
31285;BME280;56605;51.516;6.742;2023-03-26T03:14:58;100362.91;;;6.90;100.00
31285;BME280;56605;51.516;6.742;2023-03-26T03:17:24;100359.25;;;6.91;100.00
31285;BME280;56605;51.516;6.742;2023-03-26T03:19:49;100354.66;;;6.93;100.00
31285;BME280;56605;51.516;6.742;2023-03-26T03:22:15;100355.47;;;6.93;100.00
31285;BME280;56605;51.516;6.742;2023-03-26T03:24:40;100347.66;;;6.92;100.00
31285;BME280;56605;51.516;6.742;2023-03-26T03:27:08;100348.84;;;6.97;100.00
31285;BME280;56605;51.516;6.742;2023-03-26T03:29:34;100344.69;;;6.95;100.00
31285;BME280;56605;51.516;6.742;2023-03-26T03:31:59;100341.88;;;6.96;100.00
31285;BME280;56605;51.516;6.742;2023-03-26T03:34:25;100342.44;;;7.00;100.00
31285;BME280;56605;51.516;6.742;2023-03-26T03:36:50;100340.09;;;6.97;100.00
31285;BME280;56605;51.516;6.742;2023-03-26T03:39:16;100338.09;;;6.99;100.00
31285;BME280;56605;51.516;6.742;2023-03-26T03:41:41;100330.78;;;6.93;100.00
31285;BME280;56605;51.516;6.742;2023-03-26T03:44:06;100333.41;;;6.93;100.00
31285;BME280;56605;51.516;6.742;2023-03-26T03:46:32;100324.16;;;6.97;100.00
31285;BME280;56605;51.516;6.742;2023-03-26T03:48:57;100328.31;;;7.00;100.00
31285;BME280;56605;51.516;6.742;2023-03-26T03:51:23;100327.97;;;6.94;100.00
31285;BME280;56605;51.516;6.742;2023-03-26T03:53:48;100320.97;;;6.93;100.00
31285;BME280;56605;51.516;6.742;2023-03-26T03:56:15;100328.03;;;6.84;100.00
31285;BME280;56605;51.516;6.742;2023-03-26T03:58:43;100322.66;;;6.94;100.00
31285;BME280;56605;51.516;6.742;2023-03-26T04:01:10;100325.19;;;7.04;100.00
31285;BME280;56605;51.516;6.742;2023-03-26T04:03:37;100321.03;;;7.02;100.00
31285;BME280;56605;51.516;6.742;2023-03-26T04:06:06;100313.09;;;7.02;100.00
31285;BME280;56605;51.516;6.742;2023-03-26T04:08:31;100305.72;;;6.95;100.00
31285;BME280;56605;51.516;6.742;2023-03-26T04:10:57;100308.38;;;6.95;100.00
31285;BME280;56605;51.516;6.742;2023-03-26T04:13:22;100305.13;;;7.02;100.00
31285;BME280;56605;51.516;6.742;2023-03-26T04:15:47;100299.13;;;7.00;100.00
31285;BME280;56605;51.516;6.742;2023-03-26T04:18:13;100300.47;;;7.04;100.00
31285;BME280;56605;51.516;6.742;2023-03-26T04:20:40;100300.53;;;7.12;100.00
31285;BME280;56605;51.516;6.742;2023-03-26T04:23:11;100290.13;;;7.19;100.00
31285;BME280;56605;51.516;6.742;2023-03-26T04:25:39;100284.66;;;7.20;100.00
31285;BME280;56605;51.516;6.742;2023-03-26T04:28:06;100285.00;;;7.26;100.00
31285;BME280;56605;51.516;6.742;2023-03-26T04:30:33;100287.19;;;7.30;100.00
31285;BME280;56605;51.516;6.742;2023-03-26T04:33:00;100282.09;;;7.37;100.00
31285;BME280;56605;51.516;6.742;2023-03-26T04:35:31;100288.91;;;7.40;100.00
31285;BME280;56605;51.516;6.742;2023-03-26T04:37:59;100280.09;;;7.39;100.00
31285;BME280;56605;51.516;6.742;2023-03-26T04:40:24;100282.97;;;7.46;100.00
31285;BME280;56605;51.516;6.742;2023-03-26T04:42:50;100275.66;;;7.48;100.00
31285;BME280;56605;51.516;6.742;2023-03-26T04:45:18;100272.50;;;7.44;100.00
31285;BME280;56605;51.516;6.742;2023-03-26T04:47:46;100278.25;;;7.31;100.00
31285;BME280;56605;51.516;6.742;2023-03-26T04:50:12;100261.97;;;7.34;100.00
31285;BME280;56605;51.516;6.742;2023-03-26T04:52:38;100266.09;;;7.29;100.00
31285;BME280;56605;51.516;6.742;2023-03-26T04:55:06;100256.38;;;7.11;100.00
31285;BME280;56605;51.516;6.742;2023-03-26T04:57:40;100256.91;;;7.15;100.00
31285;BME280;56605;51.516;6.742;2023-03-26T05:00:12;100250.63;;;7.16;100.00
31285;BME280;56605;51.516;6.742;2023-03-26T05:02:41;100248.34;;;7.21;100.00
31285;BME280;56605;51.516;6.742;2023-03-26T05:05:07;100240.88;;;7.25;100.00
31285;BME280;56605;51.516;6.742;2023-03-26T05:07:32;100233.59;;;7.27;100.00
31285;BME280;56605;51.516;6.742;2023-03-26T05:09:58;100235.25;;;7.28;100.00
31285;BME280;56605;51.516;6.742;2023-03-26T05:12:23;100235.72;;;7.23;100.00
31285;BME280;56605;51.516;6.742;2023-03-26T05:14:48;100228.88;;;7.12;100.00
31285;BME280;56605;51.516;6.742;2023-03-26T05:17:14;100230.44;;;6.96;100.00
31285;BME280;56605;51.516;6.742;2023-03-26T05:19:42;100223.03;;;6.82;100.00
31285;BME280;56605;51.516;6.742;2023-03-26T05:22:08;100222.16;;;6.73;100.00
31285;BME280;56605;51.516;6.742;2023-03-26T05:24:33;100214.34;;;6.71;100.00
31285;BME280;56605;51.516;6.742;2023-03-26T05:26:58;100216.66;;;6.66;100.00
31285;BME280;56605;51.516;6.742;2023-03-26T05:29:24;100205.31;;;6.56;100.00
31285;BME280;56605;51.516;6.742;2023-03-26T05:31:49;100214.81;;;6.49;100.00
31285;BME280;56605;51.516;6.742;2023-03-26T05:34:15;100205.53;;;6.44;100.00
31285;BME280;56605;51.516;6.742;2023-03-26T05:36:40;100200.69;;;6.40;100.00
31285;BME280;56605;51.516;6.742;2023-03-26T05:39:07;100193.22;;;6.35;100.00
31285;BME280;56605;51.516;6.742;2023-03-26T05:41:32;100191.81;;;6.31;100.00
31285;BME280;56605;51.516;6.742;2023-03-26T05:43:58;100190.84;;;6.32;100.00
31285;BME280;56605;51.516;6.742;2023-03-26T05:46:23;100179.72;;;6.28;100.00
31285;BME280;56605;51.516;6.742;2023-03-26T05:48:48;100184.19;;;6.28;100.00
31285;BME280;56605;51.516;6.742;2023-03-26T05:51:16;100183.22;;;6.29;100.00
31285;BME280;56605;51.516;6.742;2023-03-26T05:53:41;100177.66;;;6.22;100.00
31285;BME280;56605;51.516;6.742;2023-03-26T05:56:07;100181.47;;;6.19;100.00
31285;BME280;56605;51.516;6.742;2023-03-26T05:58:33;100178.50;;;6.22;100.00
31285;BME280;56605;51.516;6.742;2023-03-26T06:01:01;100178.72;;;6.29;100.00
31285;BME280;56605;51.516;6.742;2023-03-26T06:03:33;100171.16;;;6.16;100.00
31285;BME280;56605;51.516;6.742;2023-03-26T06:05:59;100177.31;;;6.17;100.00
31285;BME280;56605;51.516;6.742;2023-03-26T06:08:24;100168.00;;;6.13;100.00
31285;BME280;56605;51.516;6.742;2023-03-26T06:10:56;100171.84;;;6.18;100.00
31285;BME280;56605;51.516;6.742;2023-03-26T06:13:21;100162.75;;;6.21;100.00
31285;BME280;56605;51.516;6.742;2023-03-26T06:15:47;100162.59;;;6.22;100.00
31285;BME280;56605;51.516;6.742;2023-03-26T06:18:12;100161.84;;;6.30;100.00
31285;BME280;56605;51.516;6.742;2023-03-26T06:20:40;100160.25;;;6.38;100.00
31285;BME280;56605;51.516;6.742;2023-03-26T06:23:05;100160.91;;;6.40;100.00
31285;BME280;56605;51.516;6.742;2023-03-26T06:25:30;100159.31;;;6.47;100.00
31285;BME280;56605;51.516;6.742;2023-03-26T06:27:56;100160.91;;;6.40;100.00
31285;BME280;56605;51.516;6.742;2023-03-26T06:30:21;100162.28;;;6.44;100.00
31285;BME280;56605;51.516;6.742;2023-03-26T06:32:47;100156.13;;;6.43;100.00
31285;BME280;56605;51.516;6.742;2023-03-26T06:35:12;100152.34;;;6.46;100.00
31285;BME280;56605;51.516;6.742;2023-03-26T06:37:38;100155.22;;;6.53;100.00
31285;BME280;56605;51.516;6.742;2023-03-26T06:40:04;100158.69;;;6.53;100.00
31285;BME280;56605;51.516;6.742;2023-03-26T06:42:29;100152.72;;;6.51;100.00
31285;BME280;56605;51.516;6.742;2023-03-26T06:44:55;100148.06;;;6.53;100.00
31285;BME280;56605;51.516;6.742;2023-03-26T06:47:20;100149.06;;;6.52;100.00
31285;BME280;56605;51.516;6.742;2023-03-26T06:49:45;100142.78;;;6.53;100.00
31285;BME280;56605;51.516;6.742;2023-03-26T06:52:11;100146.47;;;6.60;100.00
31285;BME280;56605;51.516;6.742;2023-03-26T06:54:37;100138.72;;;6.67;100.00
31285;BME280;56605;51.516;6.742;2023-03-26T06:57:02;100136.06;;;6.67;100.00
31285;BME280;56605;51.516;6.742;2023-03-26T06:59:28;100132.94;;;6.72;100.00
31285;BME280;56605;51.516;6.742;2023-03-26T07:01:53;100132.31;;;6.78;100.00
31285;BME280;56605;51.516;6.742;2023-03-26T07:04:18;100126.34;;;6.76;100.00
31285;BME280;56605;51.516;6.742;2023-03-26T07:06:44;100124.50;;;6.77;100.00
31285;BME280;56605;51.516;6.742;2023-03-26T07:09:10;100121.66;;;6.70;100.00
31285;BME280;56605;51.516;6.742;2023-03-26T07:11:35;100120.97;;;6.68;100.00
31285;BME280;56605;51.516;6.742;2023-03-26T07:14:00;100119.53;;;6.74;100.00
31285;BME280;56605;51.516;6.742;2023-03-26T07:16:26;100120.50;;;6.72;100.00
31285;BME280;56605;51.516;6.742;2023-03-26T07:18:51;100112.38;;;6.74;100.00
31285;BME280;56605;51.516;6.742;2023-03-26T07:21:18;100110.41;;;6.76;100.00
31285;BME280;56605;51.516;6.742;2023-03-26T07:23:46;100111.75;;;6.80;100.00
31285;BME280;56605;51.516;6.742;2023-03-26T07:26:30;100102.97;;;6.80;100.00
31285;BME280;56605;51.516;6.742;2023-03-26T07:29:10;100095.69;;;6.82;100.00
31285;BME280;56605;51.516;6.742;2023-03-26T07:31:48;100093.88;;;6.82;100.00
31285;BME280;56605;51.516;6.742;2023-03-26T07:36:59;100086.41;;;6.86;100.00
31285;BME280;56605;51.516;6.742;2023-03-26T07:39:34;100090.22;;;6.83;100.00
31285;BME280;56605;51.516;6.742;2023-03-26T07:42:22;100086.56;;;6.84;100.00
31285;BME280;56605;51.516;6.742;2023-03-26T07:47:34;100083.44;;;6.89;100.00
31285;BME280;56605;51.516;6.742;2023-03-26T07:49:59;100072.00;;;6.89;100.00
31285;BME280;56605;51.516;6.742;2023-03-26T07:52:25;64886.44;;;-150.46;100.00
31285;BME280;56605;51.516;6.742;2023-03-26T07:54:51;64886.44;;;-150.46;100.00
31285;BME280;56605;51.516;6.742;2023-03-26T07:57:35;64886.44;;;-150.46;100.00
31285;BME280;56605;51.516;6.742;2023-03-26T08:05:23;64886.44;;;-150.46;100.00
31285;BME280;56605;51.516;6.742;2023-03-26T08:08:16;64886.44;;;-150.46;100.00
31285;BME280;56605;51.516;6.742;2023-03-26T08:11:06;64886.44;;;-150.46;100.00
31285;BME280;56605;51.516;6.742;2023-03-26T08:13:55;64886.44;;;-150.46;100.00
31285;BME280;56605;51.516;6.742;2023-03-26T08:16:45;64886.44;;;-150.46;100.00
31285;BME280;56605;51.516;6.742;2023-03-26T08:19:29;64886.44;;;-150.46;100.00
31285;BME280;56605;51.516;6.742;2023-03-26T08:32:27;64886.44;;;-150.46;100.00
31285;BME280;56605;51.516;6.742;2023-03-26T08:34:52;64886.44;;;-150.46;100.00
31285;BME280;56605;51.516;6.742;2023-03-26T08:37:17;64886.44;;;-150.46;100.00
31285;BME280;56605;51.516;6.742;2023-03-26T08:39:43;64886.44;;;-150.46;100.00
31285;BME280;56605;51.516;6.742;2023-03-26T08:56:00;64886.44;;;-150.46;100.00
31285;BME280;56605;51.516;6.742;2023-03-26T08:58:43;64886.44;;;-150.46;100.00
31285;BME280;56605;51.516;6.742;2023-03-26T09:07:43;64886.44;;;-150.46;100.00
31285;BME280;56605;51.516;6.742;2023-03-26T09:10:51;64886.44;;;-150.46;100.00
31285;BME280;56605;51.516;6.742;2023-03-26T09:13:29;64886.44;;;-150.46;100.00
31285;BME280;56605;51.516;6.742;2023-03-26T09:18:46;64886.44;;;-150.46;100.00
31285;BME280;56605;51.516;6.742;2023-03-26T09:24:15;64886.44;;;-150.46;100.00
31285;BME280;56605;51.516;6.742;2023-03-26T09:37:56;64886.44;;;-150.46;100.00
31285;BME280;56605;51.516;6.742;2023-03-26T09:43:02;64886.44;;;-150.46;100.00
31285;BME280;56605;51.516;6.742;2023-03-26T09:48:28;64886.44;;;-150.46;100.00
31285;BME280;56605;51.516;6.742;2023-03-26T09:52:04;64886.44;;;-150.46;100.00
31285;BME280;56605;51.516;6.742;2023-03-26T10:10:30;64886.44;;;-150.46;100.00
31285;BME280;56605;51.516;6.742;2023-03-26T10:13:06;64886.44;;;-150.46;100.00
31285;BME280;56605;51.516;6.742;2023-03-26T10:15:50;64886.44;;;-150.46;100.00
31285;BME280;56605;51.516;6.742;2023-03-26T10:18:43;64886.44;;;-150.46;100.00
31285;BME280;56605;51.516;6.742;2023-03-26T10:21:33;64886.44;;;-150.46;100.00
31285;BME280;56605;51.516;6.742;2023-03-26T10:24:31;64886.44;;;-150.46;100.00
31285;BME280;56605;51.516;6.742;2023-03-26T10:32:52;64886.44;;;-150.46;100.00
31285;BME280;56605;51.516;6.742;2023-03-26T10:38:15;64886.44;;;-150.46;100.00
31285;BME280;56605;51.516;6.742;2023-03-26T10:43:27;64886.44;;;-150.46;100.00
31285;BME280;56605;51.516;6.742;2023-03-26T10:46:23;64886.44;;;-150.46;100.00
31285;BME280;56605;51.516;6.742;2023-03-26T10:51:40;64886.44;;;-150.46;100.00
31285;BME280;56605;51.516;6.742;2023-03-26T11:00:13;64886.44;;;-150.46;100.00
31285;BME280;56605;51.516;6.742;2023-03-26T11:03:07;64886.44;;;-150.46;100.00
31285;BME280;56605;51.516;6.742;2023-03-26T11:13:46;64886.44;;;-150.46;100.00
31285;BME280;56605;51.516;6.742;2023-03-26T11:21:26;64886.44;;;-150.46;100.00
31285;BME280;56605;51.516;6.742;2023-03-26T11:24:29;64886.44;;;-150.46;100.00
31285;BME280;56605;51.516;6.742;2023-03-26T11:29:54;64886.44;;;-150.46;100.00
31285;BME280;56605;51.516;6.742;2023-03-26T11:32:34;64886.44;;;-150.46;100.00
31285;BME280;56605;51.516;6.742;2023-03-26T11:35:14;64886.44;;;-150.46;100.00
31285;BME280;56605;51.516;6.742;2023-03-26T11:37:52;64886.44;;;-150.46;100.00
31285;BME280;56605;51.516;6.742;2023-03-26T11:40:30;64886.44;;;-150.46;100.00
31285;BME280;56605;51.516;6.742;2023-03-26T11:43:03;64886.44;;;-150.46;100.00
31285;BME280;56605;51.516;6.742;2023-03-26T11:45:35;64886.44;;;-150.46;100.00
31285;BME280;56605;51.516;6.742;2023-03-26T11:48:07;64886.44;;;-150.46;100.00
31285;BME280;56605;51.516;6.742;2023-03-26T11:50:38;64886.44;;;-150.46;100.00
31285;BME280;56605;51.516;6.742;2023-03-26T11:53:19;64886.44;;;-150.46;100.00
31285;BME280;56605;51.516;6.742;2023-03-26T11:56:02;64886.44;;;-150.46;100.00
31285;BME280;56605;51.516;6.742;2023-03-26T11:58:37;64886.44;;;-150.46;100.00
31285;BME280;56605;51.516;6.742;2023-03-26T12:01:16;64886.44;;;-150.46;100.00
31285;BME280;56605;51.516;6.742;2023-03-26T12:06:25;64886.44;;;-150.46;100.00
31285;BME280;56605;51.516;6.742;2023-03-26T12:08:53;64886.44;;;-150.46;100.00
31285;BME280;56605;51.516;6.742;2023-03-26T12:11:24;64886.44;;;-150.46;100.00
31285;BME280;56605;51.516;6.742;2023-03-26T12:13:54;64886.44;;;-150.46;100.00
31285;BME280;56605;51.516;6.742;2023-03-26T12:16:22;64886.44;;;-150.46;100.00
31285;BME280;56605;51.516;6.742;2023-03-26T12:19:17;64886.44;;;-150.46;100.00
31285;BME280;56605;51.516;6.742;2023-03-26T12:21:52;64886.44;;;-150.46;100.00
31285;BME280;56605;51.516;6.742;2023-03-26T12:24:27;64886.44;;;-150.46;100.00
31285;BME280;56605;51.516;6.742;2023-03-26T12:27:05;64886.44;;;-150.46;100.00
31285;BME280;56605;51.516;6.742;2023-03-26T12:29:49;64886.44;;;-150.46;100.00
31285;BME280;56605;51.516;6.742;2023-03-26T12:32:15;64886.44;;;-150.46;100.00
31285;BME280;56605;51.516;6.742;2023-03-26T12:34:41;64886.44;;;-150.46;100.00
31285;BME280;56605;51.516;6.742;2023-03-26T12:37:30;64886.44;;;-150.46;100.00
31285;BME280;56605;51.516;6.742;2023-03-26T12:40:07;64886.44;;;-150.46;100.00
31285;BME280;56605;51.516;6.742;2023-03-26T12:42:39;64886.44;;;-150.46;100.00
31285;BME280;56605;51.516;6.742;2023-03-26T12:45:05;64886.44;;;-150.46;100.00
31285;BME280;56605;51.516;6.742;2023-03-26T12:47:32;64886.44;;;-150.46;100.00
31285;BME280;56605;51.516;6.742;2023-03-26T12:49:58;64886.44;;;-150.46;100.00
31285;BME280;56605;51.516;6.742;2023-03-26T12:52:43;64886.44;;;-150.46;100.00
31285;BME280;56605;51.516;6.742;2023-03-26T12:58:16;64886.44;;;-150.46;100.00
31285;BME280;56605;51.516;6.742;2023-03-26T13:05:55;64886.44;;;-150.46;100.00
31285;BME280;56605;51.516;6.742;2023-03-26T13:16:15;64886.44;;;-150.46;100.00
31285;BME280;56605;51.516;6.742;2023-03-26T13:18:49;64886.44;;;-150.46;100.00
31285;BME280;56605;51.516;6.742;2023-03-26T13:21:42;64886.44;;;-150.46;100.00
31285;BME280;56605;51.516;6.742;2023-03-26T13:26:52;64886.44;;;-150.46;100.00
31285;BME280;56605;51.516;6.742;2023-03-26T13:40:51;64886.44;;;-150.46;100.00
31285;BME280;56605;51.516;6.742;2023-03-26T13:43:36;64886.44;;;-150.46;100.00
31285;BME280;56605;51.516;6.742;2023-03-26T13:51:29;64886.44;;;-150.46;100.00
31285;BME280;56605;51.516;6.742;2023-03-26T13:54:15;64886.44;;;-150.46;100.00
31285;BME280;56605;51.516;6.742;2023-03-26T13:56:46;64886.44;;;-150.46;100.00
31285;BME280;56605;51.516;6.742;2023-03-26T13:59:22;64886.44;;;-150.46;100.00
31285;BME280;56605;51.516;6.742;2023-03-26T14:01:56;64886.44;;;-150.46;100.00
31285;BME280;56605;51.516;6.742;2023-03-26T14:04:32;64886.44;;;-150.46;100.00
31285;BME280;56605;51.516;6.742;2023-03-26T14:07:17;64886.44;;;-150.46;100.00
31285;BME280;56605;51.516;6.742;2023-03-26T14:10:11;64886.44;;;-150.46;100.00
31285;BME280;56605;51.516;6.742;2023-03-26T14:12:59;64886.44;;;-150.46;100.00
31285;BME280;56605;51.516;6.742;2023-03-26T14:15:33;64886.44;;;-150.46;100.00
31285;BME280;56605;51.516;6.742;2023-03-26T14:18:23;64886.44;;;-150.46;100.00
31285;BME280;56605;51.516;6.742;2023-03-26T14:29:36;64886.44;;;-150.46;100.00
31285;BME280;56605;51.516;6.742;2023-03-26T14:37:51;64886.44;;;-150.46;100.00
31285;BME280;56605;51.516;6.742;2023-03-26T14:51:55;64886.44;;;-150.46;100.00
31285;BME280;56605;51.516;6.742;2023-03-26T14:54:23;64886.44;;;-150.46;100.00
31285;BME280;56605;51.516;6.742;2023-03-26T15:05:47;64886.44;;;-150.46;100.00
31285;BME280;56605;51.516;6.742;2023-03-26T15:14:31;64886.44;;;-150.46;100.00
31285;BME280;56605;51.516;6.742;2023-03-26T15:32:02;64886.44;;;-150.46;100.00
31285;BME280;56605;51.516;6.742;2023-03-26T15:37:23;64886.44;;;-150.46;100.00
31285;BME280;56605;51.516;6.742;2023-03-26T15:40:21;64886.44;;;-150.46;100.00
31285;BME280;56605;51.516;6.742;2023-03-26T15:43:10;64886.44;;;-150.46;100.00
31285;BME280;56605;51.516;6.742;2023-03-26T15:45:41;64886.44;;;-150.46;100.00
31285;BME280;56605;51.516;6.742;2023-03-26T15:53:46;64886.44;;;-150.46;100.00
31285;BME280;56605;51.516;6.742;2023-03-26T15:56:24;64886.44;;;-150.46;100.00
31285;BME280;56605;51.516;6.742;2023-03-26T15:59:21;64886.44;;;-150.46;100.00
31285;BME280;56605;51.516;6.742;2023-03-26T16:04:54;64886.44;;;-150.46;100.00
31285;BME280;56605;51.516;6.742;2023-03-26T16:08:25;64886.44;;;-150.46;100.00
31285;BME280;56605;51.516;6.742;2023-03-26T16:10:53;64886.44;;;-150.46;100.00
31285;BME280;56605;51.516;6.742;2023-03-26T16:15:54;64886.44;;;-150.46;100.00
31285;BME280;56605;51.516;6.742;2023-03-26T16:18:27;64886.44;;;-150.46;100.00
31285;BME280;56605;51.516;6.742;2023-03-26T16:21:34;64886.44;;;-150.46;100.00
31285;BME280;56605;51.516;6.742;2023-03-26T16:29:10;64886.44;;;-150.46;100.00
31285;BME280;56605;51.516;6.742;2023-03-26T16:32:16;64886.44;;;-150.46;100.00
31285;BME280;56605;51.516;6.742;2023-03-26T16:35:00;64886.44;;;-150.46;100.00
31285;BME280;56605;51.516;6.742;2023-03-26T16:45:36;64886.44;;;-150.46;100.00
31285;BME280;56605;51.516;6.742;2023-03-26T16:48:16;64886.44;;;-150.46;100.00
31285;BME280;56605;51.516;6.742;2023-03-26T16:56:15;64886.44;;;-150.46;100.00
31285;BME280;56605;51.516;6.742;2023-03-26T16:58:54;64886.44;;;-150.46;100.00
31285;BME280;56605;51.516;6.742;2023-03-26T17:01:25;64886.44;;;-150.46;100.00
31285;BME280;56605;51.516;6.742;2023-03-26T17:03:58;64886.44;;;-150.46;100.00
31285;BME280;56605;51.516;6.742;2023-03-26T17:09:23;64886.44;;;-150.46;100.00
31285;BME280;56605;51.516;6.742;2023-03-26T17:12:15;64886.44;;;-150.46;100.00
31285;BME280;56605;51.516;6.742;2023-03-26T17:15:04;64886.44;;;-150.46;100.00
31285;BME280;56605;51.516;6.742;2023-03-26T17:20:38;64886.44;;;-150.46;100.00
31285;BME280;56605;51.516;6.742;2023-03-26T17:26:08;64886.44;;;-150.46;100.00
31285;BME280;56605;51.516;6.742;2023-03-26T17:28:44;64886.44;;;-150.46;100.00
31285;BME280;56605;51.516;6.742;2023-03-26T17:31:29;64886.44;;;-150.46;100.00
31285;BME280;56605;51.516;6.742;2023-03-26T17:34:38;64886.44;;;-150.46;100.00
31285;BME280;56605;51.516;6.742;2023-03-26T17:42:29;64886.44;;;-150.46;100.00